sensor_id;sensor_type;location;lat;lon;timestamp;temperature;humidity
74364;DHT22;62797;49.740;10.154;2023-04-25T00:00:22;9.40;52.40
74364;DHT22;62797;49.740;10.154;2023-04-25T00:02:47;9.50;52.50
74364;DHT22;62797;49.740;10.154;2023-04-25T00:05:13;9.50;52.30
74364;DHT22;62797;49.740;10.154;2023-04-25T00:07:40;9.40;52.10
74364;DHT22;62797;49.740;10.154;2023-04-25T00:10:08;9.50;52.20
74364;DHT22;62797;49.740;10.154;2023-04-25T00:12:33;9.40;51.90
74364;DHT22;62797;49.740;10.154;2023-04-25T00:14:59;9.40;52.30
74364;DHT22;62797;49.740;10.154;2023-04-25T00:17:25;9.50;52.10
74364;DHT22;62797;49.740;10.154;2023-04-25T00:19:52;9.50;51.60
74364;DHT22;62797;49.740;10.154;2023-04-25T00:22:17;9.50;52.20
74364;DHT22;62797;49.740;10.154;2023-04-25T00:24:43;9.50;55.80
74364;DHT22;62797;49.740;10.154;2023-04-25T00:27:08;9.30;57.30
74364;DHT22;62797;49.740;10.154;2023-04-25T00:29:34;9.20;58.70
74364;DHT22;62797;49.740;10.154;2023-04-25T00:32:00;9.10;59.70
74364;DHT22;62797;49.740;10.154;2023-04-25T00:34:25;9.10;59.80
74364;DHT22;62797;49.740;10.154;2023-04-25T00:36:51;9.10;60.70
74364;DHT22;62797;49.740;10.154;2023-04-25T00:39:19;9.10;61.20
74364;DHT22;62797;49.740;10.154;2023-04-25T00:41:45;9.10;60.90
74364;DHT22;62797;49.740;10.154;2023-04-25T00:44:10;9.00;60.10
74364;DHT22;62797;49.740;10.154;2023-04-25T00:46:36;9.00;60.40
74364;DHT22;62797;49.740;10.154;2023-04-25T00:49:02;9.00;60.30
74364;DHT22;62797;49.740;10.154;2023-04-25T00:51:28;9.00;60.10
74364;DHT22;62797;49.740;10.154;2023-04-25T00:53:54;9.00;60.40
74364;DHT22;62797;49.740;10.154;2023-04-25T00:56:20;8.90;60.60
74364;DHT22;62797;49.740;10.154;2023-04-25T00:58:46;9.00;61.00
74364;DHT22;62797;49.740;10.154;2023-04-25T01:01:13;9.00;59.90
74364;DHT22;62797;49.740;10.154;2023-04-25T01:03:39;8.90;60.00
74364;DHT22;62797;49.740;10.154;2023-04-25T01:06:08;8.90;60.80
74364;DHT22;62797;49.740;10.154;2023-04-25T01:08:34;8.90;60.40
74364;DHT22;62797;49.740;10.154;2023-04-25T01:11:00;8.80;60.80
74364;DHT22;62797;49.740;10.154;2023-04-25T01:13:26;8.80;60.10
74364;DHT22;62797;49.740;10.154;2023-04-25T01:15:52;8.80;60.20
74364;DHT22;62797;49.740;10.154;2023-04-25T01:18:19;8.80;60.60
74364;DHT22;62797;49.740;10.154;2023-04-25T01:20:46;8.80;59.20
74364;DHT22;62797;49.740;10.154;2023-04-25T01:23:11;8.80;59.30
74364;DHT22;62797;49.740;10.154;2023-04-25T01:25:38;8.70;60.20
74364;DHT22;62797;49.740;10.154;2023-04-25T01:28:04;8.70;59.30
74364;DHT22;62797;49.740;10.154;2023-04-25T01:30:31;8.70;59.20
74364;DHT22;62797;49.740;10.154;2023-04-25T01:32:56;8.70;59.10
74364;DHT22;62797;49.740;10.154;2023-04-25T01:35:22;8.60;60.30
74364;DHT22;62797;49.740;10.154;2023-04-25T01:37:52;8.60;60.10
74364;DHT22;62797;49.740;10.154;2023-04-25T01:40:18;8.70;58.80
74364;DHT22;62797;49.740;10.154;2023-04-25T01:42:45;8.70;59.50
74364;DHT22;62797;49.740;10.154;2023-04-25T01:45:11;8.70;58.70
74364;DHT22;62797;49.740;10.154;2023-04-25T01:47:37;8.80;59.00
74364;DHT22;62797;49.740;10.154;2023-04-25T01:50:05;8.80;58.80
74364;DHT22;62797;49.740;10.154;2023-04-25T01:52:31;8.80;58.50
74364;DHT22;62797;49.740;10.154;2023-04-25T01:54:57;8.90;58.20
74364;DHT22;62797;49.740;10.154;2023-04-25T01:57:25;8.90;58.20
74364;DHT22;62797;49.740;10.154;2023-04-25T01:59:54;8.80;58.60
74364;DHT22;62797;49.740;10.154;2023-04-25T02:02:37;8.90;58.70
74364;DHT22;62797;49.740;10.154;2023-04-25T02:05:05;8.80;58.20
74364;DHT22;62797;49.740;10.154;2023-04-25T02:07:33;8.80;59.20
74364;DHT22;62797;49.740;10.154;2023-04-25T02:09:59;8.80;59.00
74364;DHT22;62797;49.740;10.154;2023-04-25T02:12:27;8.70;60.30
74364;DHT22;62797;49.740;10.154;2023-04-25T02:15:11;8.60;61.20
74364;DHT22;62797;49.740;10.154;2023-04-25T02:17:57;8.60;61.50
74364;DHT22;62797;49.740;10.154;2023-04-25T02:20:23;8.60;62.60
74364;DHT22;62797;49.740;10.154;2023-04-25T02:22:50;8.60;62.30
74364;DHT22;62797;49.740;10.154;2023-04-25T02:25:16;8.60;63.00
74364;DHT22;62797;49.740;10.154;2023-04-25T02:27:42;8.60;63.90
74364;DHT22;62797;49.740;10.154;2023-04-25T02:30:10;8.60;63.70
74364;DHT22;62797;49.740;10.154;2023-04-25T02:32:36;8.60;63.90
74364;DHT22;62797;49.740;10.154;2023-04-25T02:35:02;8.60;63.70
74364;DHT22;62797;49.740;10.154;2023-04-25T02:37:30;8.60;64.10
74364;DHT22;62797;49.740;10.154;2023-04-25T02:39:56;8.60;63.70
74364;DHT22;62797;49.740;10.154;2023-04-25T02:42:22;8.60;63.90
74364;DHT22;62797;49.740;10.154;2023-04-25T02:44:49;8.60;64.60
74364;DHT22;62797;49.740;10.154;2023-04-25T02:47:14;8.50;64.80
74364;DHT22;62797;49.740;10.154;2023-04-25T02:49:42;8.40;64.90
74364;DHT22;62797;49.740;10.154;2023-04-25T02:52:08;8.40;65.30
74364;DHT22;62797;49.740;10.154;2023-04-25T02:54:34;8.50;65.80
74364;DHT22;62797;49.740;10.154;2023-04-25T02:57:00;8.40;64.20
74364;DHT22;62797;49.740;10.154;2023-04-25T02:59:31;8.40;63.40
74364;DHT22;62797;49.740;10.154;2023-04-25T03:01:57;8.30;63.60
74364;DHT22;62797;49.740;10.154;2023-04-25T03:04:23;8.30;63.60
74364;DHT22;62797;49.740;10.154;2023-04-25T03:06:52;8.20;63.50
74364;DHT22;62797;49.740;10.154;2023-04-25T03:09:20;8.20;64.00
74364;DHT22;62797;49.740;10.154;2023-04-25T03:11:46;8.20;63.30
74364;DHT22;62797;49.740;10.154;2023-04-25T03:14:12;8.20;63.10
74364;DHT22;62797;49.740;10.154;2023-04-25T03:16:38;8.30;63.10
74364;DHT22;62797;49.740;10.154;2023-04-25T03:19:03;8.20;62.50
74364;DHT22;62797;49.740;10.154;2023-04-25T03:21:29;8.30;62.90
74364;DHT22;62797;49.740;10.154;2023-04-25T03:23:57;8.20;61.50
74364;DHT22;62797;49.740;10.154;2023-04-25T03:26:23;8.20;61.70
74364;DHT22;62797;49.740;10.154;2023-04-25T03:28:48;8.30;62.20
74364;DHT22;62797;49.740;10.154;2023-04-25T03:31:15;8.30;62.60
74364;DHT22;62797;49.740;10.154;2023-04-25T03:33:40;8.30;61.80
74364;DHT22;62797;49.740;10.154;2023-04-25T03:36:06;8.30;60.90
74364;DHT22;62797;49.740;10.154;2023-04-25T03:38:32;8.30;60.20
74364;DHT22;62797;49.740;10.154;2023-04-25T03:40:58;8.30;61.30
74364;DHT22;62797;49.740;10.154;2023-04-25T03:43:38;8.30;59.90
74364;DHT22;62797;49.740;10.154;2023-04-25T03:46:09;8.40;60.00
74364;DHT22;62797;49.740;10.154;2023-04-25T03:48:35;8.40;59.40
74364;DHT22;62797;49.740;10.154;2023-04-25T03:51:00;8.40;59.30
74364;DHT22;62797;49.740;10.154;2023-04-25T03:53:26;8.30;59.60
74364;DHT22;62797;49.740;10.154;2023-04-25T03:56:18;8.40;57.90
74364;DHT22;62797;49.740;10.154;2023-04-25T03:58:46;8.40;59.40
74364;DHT22;62797;49.740;10.154;2023-04-25T04:01:13;8.40;59.50
74364;DHT22;62797;49.740;10.154;2023-04-25T04:03:39;8.30;59.30
74364;DHT22;62797;49.740;10.154;2023-04-25T04:06:05;8.30;59.40
74364;DHT22;62797;49.740;10.154;2023-04-25T04:08:35;8.40;59.30
74364;DHT22;62797;49.740;10.154;2023-04-25T04:11:01;8.40;59.50
74364;DHT22;62797;49.740;10.154;2023-04-25T04:13:27;8.40;58.80
74364;DHT22;62797;49.740;10.154;2023-04-25T04:15:53;8.40;59.30
74364;DHT22;62797;49.740;10.154;2023-04-25T04:18:19;8.40;59.10
74364;DHT22;62797;49.740;10.154;2023-04-25T04:20:45;8.30;59.80
74364;DHT22;62797;49.740;10.154;2023-04-25T04:23:11;8.30;60.50
74364;DHT22;62797;49.740;10.154;2023-04-25T04:25:37;8.30;61.40
74364;DHT22;62797;49.740;10.154;2023-04-25T04:28:27;8.30;60.30
74364;DHT22;62797;49.740;10.154;2023-04-25T04:31:00;8.30;60.80
74364;DHT22;62797;49.740;10.154;2023-04-25T04:33:27;8.30;60.70
74364;DHT22;62797;49.740;10.154;2023-04-25T04:35:58;8.30;61.30
74364;DHT22;62797;49.740;10.154;2023-04-25T04:38:24;8.30;61.30
74364;DHT22;62797;49.740;10.154;2023-04-25T04:40:54;8.10;62.00
74364;DHT22;62797;49.740;10.154;2023-04-25T04:43:29;8.20;62.70
74364;DHT22;62797;49.740;10.154;2023-04-25T04:46:05;8.10;62.20
74364;DHT22;62797;49.740;10.154;2023-04-25T04:49:00;8.10;62.70
74364;DHT22;62797;49.740;10.154;2023-04-25T04:51:44;8.10;64.10
74364;DHT22;62797;49.740;10.154;2023-04-25T04:54:28;8.10;65.30
74364;DHT22;62797;49.740;10.154;2023-04-25T04:57:11;8.00;66.50
74364;DHT22;62797;49.740;10.154;2023-04-25T05:00:01;7.90;65.90
74364;DHT22;62797;49.740;10.154;2023-04-25T05:02:48;7.80;67.90
74364;DHT22;62797;49.740;10.154;2023-04-25T05:05:33;7.90;69.10
74364;DHT22;62797;49.740;10.154;2023-04-25T05:07:58;7.80;69.80
74364;DHT22;62797;49.740;10.154;2023-04-25T05:10:42;7.70;70.90
74364;DHT22;62797;49.740;10.154;2023-04-25T05:13:28;7.70;71.70
74364;DHT22;62797;49.740;10.154;2023-04-25T05:16:13;7.70;71.10
74364;DHT22;62797;49.740;10.154;2023-04-25T05:18:58;7.80;71.50
74364;DHT22;62797;49.740;10.154;2023-04-25T05:21:47;7.80;72.00
74364;DHT22;62797;49.740;10.154;2023-04-25T05:24:31;7.90;71.80
74364;DHT22;62797;49.740;10.154;2023-04-25T05:27:16;7.80;70.80
74364;DHT22;62797;49.740;10.154;2023-04-25T05:30:02;7.90;71.70
74364;DHT22;62797;49.740;10.154;2023-04-25T05:32:34;7.90;71.80
74364;DHT22;62797;49.740;10.154;2023-04-25T05:35:03;7.90;72.20
74364;DHT22;62797;49.740;10.154;2023-04-25T05:37:35;8.00;72.30
74364;DHT22;62797;49.740;10.154;2023-04-25T05:40:09;8.00;72.30
74364;DHT22;62797;49.740;10.154;2023-04-25T05:42:55;8.10;71.40
74364;DHT22;62797;49.740;10.154;2023-04-25T05:45:39;8.10;71.30
74364;DHT22;62797;49.740;10.154;2023-04-25T05:48:25;8.10;71.00
74364;DHT22;62797;49.740;10.154;2023-04-25T05:51:09;8.10;71.40
74364;DHT22;62797;49.740;10.154;2023-04-25T05:54:10;8.10;71.60
74364;DHT22;62797;49.740;10.154;2023-04-25T05:56:37;8.30;71.90
74364;DHT22;62797;49.740;10.154;2023-04-25T05:59:03;8.30;70.50
74364;DHT22;62797;49.740;10.154;2023-04-25T06:01:28;8.30;70.30
74364;DHT22;62797;49.740;10.154;2023-04-25T06:03:54;8.30;68.20
74364;DHT22;62797;49.740;10.154;2023-04-25T06:06:20;8.30;68.30
74364;DHT22;62797;49.740;10.154;2023-04-25T06:08:47;8.30;69.60
74364;DHT22;62797;49.740;10.154;2023-04-25T06:11:13;8.30;70.10
74364;DHT22;62797;49.740;10.154;2023-04-25T06:13:39;8.40;68.50
74364;DHT22;62797;49.740;10.154;2023-04-25T06:16:05;8.40;68.30
74364;DHT22;62797;49.740;10.154;2023-04-25T06:18:30;8.50;68.50
74364;DHT22;62797;49.740;10.154;2023-04-25T06:20:57;8.50;68.10
74364;DHT22;62797;49.740;10.154;2023-04-25T06:23:23;8.60;67.10
74364;DHT22;62797;49.740;10.154;2023-04-25T06:25:57;8.60;66.90
74364;DHT22;62797;49.740;10.154;2023-04-25T06:28:23;8.70;66.10
74364;DHT22;62797;49.740;10.154;2023-04-25T06:30:50;8.60;66.10
74364;DHT22;62797;49.740;10.154;2023-04-25T06:33:18;8.50;65.00
74364;DHT22;62797;49.740;10.154;2023-04-25T06:35:43;8.50;65.00
74364;DHT22;62797;49.740;10.154;2023-04-25T06:38:11;8.50;66.00
74364;DHT22;62797;49.740;10.154;2023-04-25T06:40:39;8.60;65.80
74364;DHT22;62797;49.740;10.154;2023-04-25T06:43:07;8.60;66.20
74364;DHT22;62797;49.740;10.154;2023-04-25T06:45:55;8.50;64.10
74364;DHT22;62797;49.740;10.154;2023-04-25T06:48:22;8.60;62.80
74364;DHT22;62797;49.740;10.154;2023-04-25T06:50:48;8.50;60.40
74364;DHT22;62797;49.740;10.154;2023-04-25T06:53:14;8.50;62.20
74364;DHT22;62797;49.740;10.154;2023-04-25T06:55:42;8.40;60.20
74364;DHT22;62797;49.740;10.154;2023-04-25T06:58:17;8.50;61.10
74364;DHT22;62797;49.740;10.154;2023-04-25T07:01:06;8.50;57.60
74364;DHT22;62797;49.740;10.154;2023-04-25T07:03:31;8.50;57.50
74364;DHT22;62797;49.740;10.154;2023-04-25T07:06:01;8.60;55.60
74364;DHT22;62797;49.740;10.154;2023-04-25T07:08:28;8.60;55.00
74364;DHT22;62797;49.740;10.154;2023-04-25T07:10:54;8.50;54.00
74364;DHT22;62797;49.740;10.154;2023-04-25T07:13:19;8.70;52.80
74364;DHT22;62797;49.740;10.154;2023-04-25T07:15:45;8.70;51.40
74364;DHT22;62797;49.740;10.154;2023-04-25T07:18:13;8.70;51.50
74364;DHT22;62797;49.740;10.154;2023-04-25T07:20:38;8.70;50.60
74364;DHT22;62797;49.740;10.154;2023-04-25T07:23:04;8.90;51.00
74364;DHT22;62797;49.740;10.154;2023-04-25T07:25:29;8.90;44.50
74364;DHT22;62797;49.740;10.154;2023-04-25T07:27:56;8.80;44.10
74364;DHT22;62797;49.740;10.154;2023-04-25T07:30:21;8.90;46.50
74364;DHT22;62797;49.740;10.154;2023-04-25T07:32:48;8.90;42.40
74364;DHT22;62797;49.740;10.154;2023-04-25T07:35:13;9.00;43.00
74364;DHT22;62797;49.740;10.154;2023-04-25T07:37:40;8.80;40.40
74364;DHT22;62797;49.740;10.154;2023-04-25T07:40:12;8.90;42.00
74364;DHT22;62797;49.740;10.154;2023-04-25T07:42:43;9.10;41.50
74364;DHT22;62797;49.740;10.154;2023-04-25T07:45:09;9.20;41.00
74364;DHT22;62797;49.740;10.154;2023-04-25T07:47:36;9.10;40.60
74364;DHT22;62797;49.740;10.154;2023-04-25T07:50:06;9.30;41.10
74364;DHT22;62797;49.740;10.154;2023-04-25T07:52:32;9.30;38.50
74364;DHT22;62797;49.740;10.154;2023-04-25T07:55:11;9.30;39.40
74364;DHT22;62797;49.740;10.154;2023-04-25T07:57:48;9.50;38.10
74364;DHT22;62797;49.740;10.154;2023-04-25T08:00:14;9.40;36.80
74364;DHT22;62797;49.740;10.154;2023-04-25T08:02:43;9.60;38.50
74364;DHT22;62797;49.740;10.154;2023-04-25T08:05:16;9.60;37.60
74364;DHT22;62797;49.740;10.154;2023-04-25T08:07:46;9.40;34.50
74364;DHT22;62797;49.740;10.154;2023-04-25T08:10:12;9.30;35.00
74364;DHT22;62797;49.740;10.154;2023-04-25T08:12:38;9.20;35.20
74364;DHT22;62797;49.740;10.154;2023-04-25T08:15:06;9.20;35.70
74364;DHT22;62797;49.740;10.154;2023-04-25T08:17:34;9.20;36.30
74364;DHT22;62797;49.740;10.154;2023-04-25T08:20:00;9.10;38.60
74364;DHT22;62797;49.740;10.154;2023-04-25T08:22:29;9.30;39.20
74364;DHT22;62797;49.740;10.154;2023-04-25T08:25:12;9.20;32.50
74364;DHT22;62797;49.740;10.154;2023-04-25T08:27:39;9.30;35.80
74364;DHT22;62797;49.740;10.154;2023-04-25T08:30:05;9.20;36.20
74364;DHT22;62797;49.740;10.154;2023-04-25T08:32:34;9.40;35.20
74364;DHT22;62797;49.740;10.154;2023-04-25T08:35:19;9.50;33.30
74364;DHT22;62797;49.740;10.154;2023-04-25T08:37:46;9.60;31.20
74364;DHT22;62797;49.740;10.154;2023-04-25T08:40:14;9.50;30.10
74364;DHT22;62797;49.740;10.154;2023-04-25T08:43:09;9.50;31.30
74364;DHT22;62797;49.740;10.154;2023-04-25T08:45:41;9.60;32.10
74364;DHT22;62797;49.740;10.154;2023-04-25T08:48:10;9.90;30.90
74364;DHT22;62797;49.740;10.154;2023-04-25T08:50:37;10.00;30.90
74364;DHT22;62797;49.740;10.154;2023-04-25T08:53:04;10.10;29.80
74364;DHT22;62797;49.740;10.154;2023-04-25T08:55:34;10.20;29.90
74364;DHT22;62797;49.740;10.154;2023-04-25T08:58:01;10.40;28.40
74364;DHT22;62797;49.740;10.154;2023-04-25T09:00:28;10.50;29.60
74364;DHT22;62797;49.740;10.154;2023-04-25T09:02:55;10.70;31.50
74364;DHT22;62797;49.740;10.154;2023-04-25T09:05:22;10.70;29.10
74364;DHT22;62797;49.740;10.154;2023-04-25T09:07:51;10.70;29.00
74364;DHT22;62797;49.740;10.154;2023-04-25T09:10:17;10.80;31.20
74364;DHT22;62797;49.740;10.154;2023-04-25T09:12:43;11.10;31.00
74364;DHT22;62797;49.740;10.154;2023-04-25T09:15:10;11.30;29.20
74364;DHT22;62797;49.740;10.154;2023-04-25T09:17:56;11.30;30.20
74364;DHT22;62797;49.740;10.154;2023-04-25T09:20:22;11.50;30.30
74364;DHT22;62797;49.740;10.154;2023-04-25T09:22:48;11.50;28.20
74364;DHT22;62797;49.740;10.154;2023-04-25T09:25:14;11.20;27.30
74364;DHT22;62797;49.740;10.154;2023-04-25T09:27:51;11.30;28.40
74364;DHT22;62797;49.740;10.154;2023-04-25T09:30:34;11.60;28.70
74364;DHT22;62797;49.740;10.154;2023-04-25T09:33:12;11.90;27.80
74364;DHT22;62797;49.740;10.154;2023-04-25T09:35:42;12.10;27.80
74364;DHT22;62797;49.740;10.154;2023-04-25T09:38:13;12.20;27.50
74364;DHT22;62797;49.740;10.154;2023-04-25T09:40:54;12.40;27.20
74364;DHT22;62797;49.740;10.154;2023-04-25T09:43:29;12.60;27.30
74364;DHT22;62797;49.740;10.154;2023-04-25T09:45:55;12.60;27.00
74364;DHT22;62797;49.740;10.154;2023-04-25T09:48:24;12.70;27.30
74364;DHT22;62797;49.740;10.154;2023-04-25T09:53:35;12.80;24.70
74364;DHT22;62797;49.740;10.154;2023-04-25T09:56:11;12.50;26.90
74364;DHT22;62797;49.740;10.154;2023-04-25T09:58:37;12.40;26.60
74364;DHT22;62797;49.740;10.154;2023-04-25T10:01:07;12.40;28.00
74364;DHT22;62797;49.740;10.154;2023-04-25T10:03:42;12.50;28.20
74364;DHT22;62797;49.740;10.154;2023-04-25T10:06:28;12.70;26.90
74364;DHT22;62797;49.740;10.154;2023-04-25T10:08:55;12.70;28.10
74364;DHT22;62797;49.740;10.154;2023-04-25T10:11:21;12.90;27.10
74364;DHT22;62797;49.740;10.154;2023-04-25T10:13:48;13.10;26.80
74364;DHT22;62797;49.740;10.154;2023-04-25T10:18:58;13.70;26.20
74364;DHT22;62797;49.740;10.154;2023-04-25T10:21:24;14.10;24.20
74364;DHT22;62797;49.740;10.154;2023-04-25T10:23:52;14.10;24.30
74364;DHT22;62797;49.740;10.154;2023-04-25T10:26:17;14.00;22.90
74364;DHT22;62797;49.740;10.154;2023-04-25T10:29:00;14.10;22.50
74364;DHT22;62797;49.740;10.154;2023-04-25T10:31:29;13.90;21.70
74364;DHT22;62797;49.740;10.154;2023-04-25T10:33:55;13.50;19.40
74364;DHT22;62797;49.740;10.154;2023-04-25T10:36:22;13.50;20.90
74364;DHT22;62797;49.740;10.154;2023-04-25T10:38:48;13.10;20.00
74364;DHT22;62797;49.740;10.154;2023-04-25T10:41:17;13.00;20.40
74364;DHT22;62797;49.740;10.154;2023-04-25T10:43:44;13.20;21.30
74364;DHT22;62797;49.740;10.154;2023-04-25T10:46:26;13.40;23.00
74364;DHT22;62797;49.740;10.154;2023-04-25T10:48:56;13.30;20.60
74364;DHT22;62797;49.740;10.154;2023-04-25T10:51:23;13.10;18.30
74364;DHT22;62797;49.740;10.154;2023-04-25T10:56:30;13.10;20.70
74364;DHT22;62797;49.740;10.154;2023-04-25T11:01:28;13.00;20.60
74364;DHT22;62797;49.740;10.154;2023-04-25T11:04:00;12.90;22.90
74364;DHT22;62797;49.740;10.154;2023-04-25T11:06:29;13.00;22.20
74364;DHT22;62797;49.740;10.154;2023-04-25T11:08:57;13.20;22.10
74364;DHT22;62797;49.740;10.154;2023-04-25T11:11:22;13.20;22.50
74364;DHT22;62797;49.740;10.154;2023-04-25T11:13:49;13.60;21.20
74364;DHT22;62797;49.740;10.154;2023-04-25T11:16:15;14.00;20.00
74364;DHT22;62797;49.740;10.154;2023-04-25T11:18:42;13.80;19.70
74364;DHT22;62797;49.740;10.154;2023-04-25T11:21:08;13.20;20.10
74364;DHT22;62797;49.740;10.154;2023-04-25T11:23:33;12.90;19.90
74364;DHT22;62797;49.740;10.154;2023-04-25T11:25:59;12.50;20.80
74364;DHT22;62797;49.740;10.154;2023-04-25T11:28:26;12.70;20.90
74364;DHT22;62797;49.740;10.154;2023-04-25T11:30:52;12.70;21.80
74364;DHT22;62797;49.740;10.154;2023-04-25T11:33:18;12.40;20.00
74364;DHT22;62797;49.740;10.154;2023-04-25T11:35:48;12.40;20.40
74364;DHT22;62797;49.740;10.154;2023-04-25T11:38:13;12.60;22.00
74364;DHT22;62797;49.740;10.154;2023-04-25T11:40:39;12.90;20.70
74364;DHT22;62797;49.740;10.154;2023-04-25T11:43:05;13.00;20.80
74364;DHT22;62797;49.740;10.154;2023-04-25T11:45:31;13.10;20.20
74364;DHT22;62797;49.740;10.154;2023-04-25T11:47:56;13.00;20.30
74364;DHT22;62797;49.740;10.154;2023-04-25T11:50:22;13.30;20.70
74364;DHT22;62797;49.740;10.154;2023-04-25T11:52:48;12.90;19.50
74364;DHT22;62797;49.740;10.154;2023-04-25T11:55:14;12.80;20.70
74364;DHT22;62797;49.740;10.154;2023-04-25T11:57:41;12.70;19.70
74364;DHT22;62797;49.740;10.154;2023-04-25T12:02:40;12.00;19.60
74364;DHT22;62797;49.740;10.154;2023-04-25T12:05:06;12.20;20.50
74364;DHT22;62797;49.740;10.154;2023-04-25T12:07:33;12.20;21.10
74364;DHT22;62797;49.740;10.154;2023-04-25T12:10:03;12.20;21.40
74364;DHT22;62797;49.740;10.154;2023-04-25T12:12:32;12.20;20.80
74364;DHT22;62797;49.740;10.154;2023-04-25T12:15:07;12.10;22.00
74364;DHT22;62797;49.740;10.154;2023-04-25T12:17:33;12.20;22.40
74364;DHT22;62797;49.740;10.154;2023-04-25T12:19:59;12.30;22.90
74364;DHT22;62797;49.740;10.154;2023-04-25T12:22:25;12.40;22.90
74364;DHT22;62797;49.740;10.154;2023-04-25T12:24:50;12.30;21.30
74364;DHT22;62797;49.740;10.154;2023-04-25T12:27:18;12.00;21.20
74364;DHT22;62797;49.740;10.154;2023-04-25T12:29:54;12.10;21.20
74364;DHT22;62797;49.740;10.154;2023-04-25T12:32:21;11.90;21.20
74364;DHT22;62797;49.740;10.154;2023-04-25T12:34:46;12.20;21.50
74364;DHT22;62797;49.740;10.154;2023-04-25T12:37:12;12.30;20.60
74364;DHT22;62797;49.740;10.154;2023-04-25T12:39:38;12.30;20.70
74364;DHT22;62797;49.740;10.154;2023-04-25T12:42:04;12.50;20.50
74364;DHT22;62797;49.740;10.154;2023-04-25T12:44:29;12.20;19.70
74364;DHT22;62797;49.740;10.154;2023-04-25T12:46:55;12.00;20.80
74364;DHT22;62797;49.740;10.154;2023-04-25T12:49:20;12.20;21.60
74364;DHT22;62797;49.740;10.154;2023-04-25T12:51:46;12.10;21.80
74364;DHT22;62797;49.740;10.154;2023-04-25T12:54:12;11.90;21.40
74364;DHT22;62797;49.740;10.154;2023-04-25T12:56:40;11.70;22.40
74364;DHT22;62797;49.740;10.154;2023-04-25T12:59:05;11.70;22.60
74364;DHT22;62797;49.740;10.154;2023-04-25T13:01:31;11.70;22.80
74364;DHT22;62797;49.740;10.154;2023-04-25T13:03:57;11.70;23.50
74364;DHT22;62797;49.740;10.154;2023-04-25T13:06:22;11.70;23.50
74364;DHT22;62797;49.740;10.154;2023-04-25T13:08:48;11.60;23.90
74364;DHT22;62797;49.740;10.154;2023-04-25T13:11:13;11.50;23.70
74364;DHT22;62797;49.740;10.154;2023-04-25T13:13:42;11.60;24.10
74364;DHT22;62797;49.740;10.154;2023-04-25T13:16:10;11.70;24.20
74364;DHT22;62797;49.740;10.154;2023-04-25T13:18:39;11.80;23.30
74364;DHT22;62797;49.740;10.154;2023-04-25T13:21:04;11.80;23.30
74364;DHT22;62797;49.740;10.154;2023-04-25T13:23:30;11.90;22.80
74364;DHT22;62797;49.740;10.154;2023-04-25T13:25:56;12.00;23.40
74364;DHT22;62797;49.740;10.154;2023-04-25T13:28:26;12.00;21.70
74364;DHT22;62797;49.740;10.154;2023-04-25T13:30:51;11.90;22.70
74364;DHT22;62797;49.740;10.154;2023-04-25T13:33:17;11.60;22.20
74364;DHT22;62797;49.740;10.154;2023-04-25T13:35:43;11.80;22.70
74364;DHT22;62797;49.740;10.154;2023-04-25T13:38:12;11.60;23.00
74364;DHT22;62797;49.740;10.154;2023-04-25T13:40:37;11.70;23.30
74364;DHT22;62797;49.740;10.154;2023-04-25T13:43:03;11.60;24.20
74364;DHT22;62797;49.740;10.154;2023-04-25T13:45:29;11.60;25.20
74364;DHT22;62797;49.740;10.154;2023-04-25T13:47:54;11.60;27.30
74364;DHT22;62797;49.740;10.154;2023-04-25T13:50:20;11.70;27.90
74364;DHT22;62797;49.740;10.154;2023-04-25T13:52:46;11.60;28.70
74364;DHT22;62797;49.740;10.154;2023-04-25T13:55:11;11.60;28.80
74364;DHT22;62797;49.740;10.154;2023-04-25T13:57:37;11.50;30.00
74364;DHT22;62797;49.740;10.154;2023-04-25T14:00:03;11.50;33.00
74364;DHT22;62797;49.740;10.154;2023-04-25T14:02:34;11.50;32.60
74364;DHT22;62797;49.740;10.154;2023-04-25T14:05:00;11.40;34.10
74364;DHT22;62797;49.740;10.154;2023-04-25T14:07:25;11.40;33.90
74364;DHT22;62797;49.740;10.154;2023-04-25T14:09:51;11.60;33.20
74364;DHT22;62797;49.740;10.154;2023-04-25T14:12:17;11.90;33.70
74364;DHT22;62797;49.740;10.154;2023-04-25T14:14:43;12.10;30.10
74364;DHT22;62797;49.740;10.154;2023-04-25T14:17:09;12.40;27.60
74364;DHT22;62797;49.740;10.154;2023-04-25T14:19:34;12.40;25.70
74364;DHT22;62797;49.740;10.154;2023-04-25T14:22:00;12.40;25.90
74364;DHT22;62797;49.740;10.154;2023-04-25T14:24:29;11.70;25.40
74364;DHT22;62797;49.740;10.154;2023-04-25T14:26:54;12.00;24.90
74364;DHT22;62797;49.740;10.154;2023-04-25T14:29:20;12.00;24.90
74364;DHT22;62797;49.740;10.154;2023-04-25T14:31:46;11.60;24.90
74364;DHT22;62797;49.740;10.154;2023-04-25T14:34:12;11.60;24.70
74364;DHT22;62797;49.740;10.154;2023-04-25T14:36:38;11.50;25.70
74364;DHT22;62797;49.740;10.154;2023-04-25T14:39:03;11.60;25.00
74364;DHT22;62797;49.740;10.154;2023-04-25T14:41:30;11.60;24.80
74364;DHT22;62797;49.740;10.154;2023-04-25T14:43:55;11.40;25.40
74364;DHT22;62797;49.740;10.154;2023-04-25T14:46:22;11.40;25.70
74364;DHT22;62797;49.740;10.154;2023-04-25T14:48:48;11.30;25.50
74364;DHT22;62797;49.740;10.154;2023-04-25T14:51:14;11.20;25.10
74364;DHT22;62797;49.740;10.154;2023-04-25T14:53:40;11.30;25.20
74364;DHT22;62797;49.740;10.154;2023-04-25T14:56:06;11.40;24.60
74364;DHT22;62797;49.740;10.154;2023-04-25T14:58:32;11.50;24.60
74364;DHT22;62797;49.740;10.154;2023-04-25T15:00:58;11.60;25.70
74364;DHT22;62797;49.740;10.154;2023-04-25T15:03:23;11.60;24.10
74364;DHT22;62797;49.740;10.154;2023-04-25T15:05:49;11.70;24.30
74364;DHT22;62797;49.740;10.154;2023-04-25T15:08:15;11.70;22.40
74364;DHT22;62797;49.740;10.154;2023-04-25T15:10:40;11.70;22.10
74364;DHT22;62797;49.740;10.154;2023-04-25T15:13:06;11.70;21.30
74364;DHT22;62797;49.740;10.154;2023-04-25T15:15:31;11.70;22.80
74364;DHT22;62797;49.740;10.154;2023-04-25T15:17:57;11.80;21.30
74364;DHT22;62797;49.740;10.154;2023-04-25T15:20:22;11.80;21.50
74364;DHT22;62797;49.740;10.154;2023-04-25T15:22:48;11.60;22.30
74364;DHT22;62797;49.740;10.154;2023-04-25T15:25:14;11.80;22.40
74364;DHT22;62797;49.740;10.154;2023-04-25T15:27:41;11.80;22.70
74364;DHT22;62797;49.740;10.154;2023-04-25T15:30:09;11.70;21.90
74364;DHT22;62797;49.740;10.154;2023-04-25T15:32:36;11.80;22.30
74364;DHT22;62797;49.740;10.154;2023-04-25T15:35:04;11.90;22.70
74364;DHT22;62797;49.740;10.154;2023-04-25T15:37:31;12.00;21.90
74364;DHT22;62797;49.740;10.154;2023-04-25T15:42:35;12.20;21.30
74364;DHT22;62797;49.740;10.154;2023-04-25T15:45:01;12.10;21.30
74364;DHT22;62797;49.740;10.154;2023-04-25T15:47:26;12.10;21.30
74364;DHT22;62797;49.740;10.154;2023-04-25T15:49:52;12.20;21.30